»·PEaware :: N659T KSBP-KDVO

N659T :: KSBP-KDVO

FLIGHT INFORMATION

Flight Status: Arrived
Operator: Privately registered:
United States
More flights under this callsign
Pilot: Donald L. (2830)
Aircraft: BEECH AIRCRAFT BONANZA
(BE35)
More flights by this aircraft type
Origin: KSBP San Luis Co Regl
United States
Destination: KDVO Gnoss
United States
More flights between these airports :: More routes between these airports
Route: MQO V27 PYE
File this flight plan on PilotEdge
Remarks:
Altitude:
(Current/Filed)
8,000ft
Speed:
(Current/Filed)
160kts
Departed: 19-Feb-18 08:31 PM
Arrived: 19-Feb-18 10:00 PM
Distance/Time
Traveled:
197nm/1:29
Distance/Time
To Go:
Arrived

Flight Plot

Page will automatically refresh every two minutes.

Flight plan parsing failed; only flown route is shown


Map Options




Map Legend


Flown Route
Filed Route
Departure Airport
Arrival Airport
Navaid (VOR, NDB)
Fix

Horizontal Profiles

Position Reports

Time Latitude Longitude Heading Altitude Ground
Speed
19-Feb-18 20:26 35.238586 -120.638693 359 214ft 0kts
19-Feb-18 20:27 35.238586 -120.638693 359 214ft 0kts
19-Feb-18 20:28 35.238677 -120.638693 0 214ft 0kts
19-Feb-18 20:29 35.238678 -120.638693 0 214ft 0kts
19-Feb-18 20:30 35.238679 -120.638693 0 214ft 0kts
19-Feb-18 20:31 35.238681 -120.638693 0 214ft 0kts
19-Feb-18 20:32 35.238682 -120.638693 0 214ft 0kts
19-Feb-18 20:33 35.238683 -120.638693 0 214ft 0kts
19-Feb-18 20:34 35.237285 -120.639017 179 214ft 3kts
19-Feb-18 20:35 35.235652 -120.636016 122 214ft 17kts
19-Feb-18 20:36 35.233311 -120.632577 219 214ft 0kts
19-Feb-18 20:37 35.233282 -120.632605 219 214ft 0kts
19-Feb-18 20:38 35.237138 -120.640811 305 282ft 103kts
19-Feb-18 20:39 35.252591 -120.672247 296 1500ft 110kts
19-Feb-18 20:40 35.267660 -120.705015 304 2701ft 108kts
19-Feb-18 20:41 35.279575 -120.734551 301 4058ft 98kts
19-Feb-18 20:42 35.293198 -120.764363 303 5254ft 103kts
19-Feb-18 20:43 35.309312 -120.794201 305 6388ft 106kts
19-Feb-18 20:44 35.321954 -120.826028 285 7465ft 104kts
19-Feb-18 20:45 35.328116 -120.863830 280 8065ft 135kts
19-Feb-18 20:46 35.342152 -120.913012 307 7957ft 165kts
19-Feb-18 20:47 35.372545 -120.955717 311 8027ft 163kts
19-Feb-18 20:48 35.402562 -120.998997 309 8095ft 162kts
19-Feb-18 20:49 35.431343 -121.042218 309 8122ft 166kts
19-Feb-18 20:50 35.460164 -121.086621 308 8123ft 166kts
19-Feb-18 20:51 35.488984 -121.131434 308 8124ft 167kts
19-Feb-18 20:52 35.517606 -121.176309 308 8125ft 167kts
19-Feb-18 20:53 35.546008 -121.221258 308 8126ft 166kts
19-Feb-18 20:54 35.574298 -121.266487 307 8127ft 166kts
19-Feb-18 20:55 35.602308 -121.311653 307 8128ft 166kts
19-Feb-18 20:56 35.630182 -121.356926 307 8129ft 165kts
19-Feb-18 20:57 35.668830 -121.386277 334 8131ft 166kts
19-Feb-18 20:58 35.710824 -121.409462 333 8140ft 165kts
19-Feb-18 20:59 35.753246 -121.431446 336 8150ft 165kts
19-Feb-18 21:00 35.796369 -121.450799 339 8152ft 165kts
19-Feb-18 21:01 35.839949 -121.468750 339 8154ft 165kts
19-Feb-18 21:02 35.883543 -121.486802 339 8155ft 164kts
19-Feb-18 21:03 35.926772 -121.505189 336 8157ft 164kts
19-Feb-18 21:04 35.968921 -121.527180 334 8159ft 164kts
19-Feb-18 21:05 36.010725 -121.549661 334 8161ft 164kts
19-Feb-18 21:06 36.051972 -121.574011 332 8159ft 164kts
19-Feb-18 21:07 36.093272 -121.599116 333 8081ft 166kts
19-Feb-18 21:08 36.135786 -121.620470 337 8081ft 164kts
19-Feb-18 21:09 36.178604 -121.641009 336 8083ft 165kts
19-Feb-18 21:10 36.221306 -121.661730 336 8083ft 164kts
19-Feb-18 21:11 36.260680 -121.688920 316 8090ft 163kts
19-Feb-18 21:12 36.293246 -121.728702 315 8087ft 163kts
19-Feb-18 21:13 36.325648 -121.768922 315 8085ft 165kts
19-Feb-18 21:14 36.360279 -121.805662 322 8086ft 163kts
19-Feb-18 21:15 36.396787 -121.839463 322 8087ft 164kts
19-Feb-18 21:16 36.433248 -121.873600 322 8088ft 163kts
19-Feb-18 21:17 36.469457 -121.907772 322 8087ft 163kts
19-Feb-18 21:18 36.506331 -121.940895 324 8087ft 163kts
19-Feb-18 21:19 36.544841 -121.971744 326 8087ft 164kts
19-Feb-18 21:20 36.583344 -122.002544 326 8088ft 164kts
19-Feb-18 21:21 36.621410 -122.033829 326 8089ft 163kts
19-Feb-18 21:22 36.659051 -122.065243 326 8090ft 163kts
19-Feb-18 21:23 36.696481 -122.096925 325 8091ft 162kts
19-Feb-18 21:24 36.733844 -122.129042 325 8092ft 163kts
19-Feb-18 21:25 36.770947 -122.161452 325 8093ft 163kts
19-Feb-18 21:26 36.807896 -122.194197 325 8094ft 163kts
19-Feb-18 21:27 36.844827 -122.227395 325 8095ft 163kts
19-Feb-18 21:28 36.881352 -122.260796 324 8091ft 163kts
19-Feb-18 21:29 36.917801 -122.294603 324 8090ft 162kts
19-Feb-18 21:30 36.953959 -122.328626 324 8095ft 162kts
19-Feb-18 21:31 36.989953 -122.362985 324 8095ft 163kts
19-Feb-18 21:32 37.025969 -122.397825 324 8095ft 163kts
19-Feb-18 21:33 37.061753 -122.432907 324 8093ft 163kts
19-Feb-18 21:34 37.099685 -122.463491 337 8093ft 162kts
19-Feb-18 21:35 37.142453 -122.481910 343 8092ft 162kts
19-Feb-18 21:36 37.185403 -122.499260 342 8091ft 162kts
19-Feb-18 21:37 37.228483 -122.517016 342 8084ft 162kts
19-Feb-18 21:38 37.271346 -122.535035 342 8082ft 162kts
19-Feb-18 21:39 37.314190 -122.553075 343 8081ft 162kts
19-Feb-18 21:40 37.357312 -122.570721 343 8080ft 162kts
19-Feb-18 21:41 37.400263 -122.588612 342 8079ft 162kts
19-Feb-18 21:42 37.443303 -122.606683 343 8080ft 162kts
19-Feb-18 21:43 37.486554 -122.623495 344 8079ft 162kts
19-Feb-18 21:44 37.529737 -122.640510 343 8080ft 162kts
19-Feb-18 21:45 37.573024 -122.657889 343 8082ft 163kts
19-Feb-18 21:46 37.616123 -122.675441 343 8084ft 163kts
19-Feb-18 21:47 37.659282 -122.692816 344 8085ft 163kts
19-Feb-18 21:48 37.702591 -122.709981 344 8085ft 162kts
19-Feb-18 21:49 37.745551 -122.727295 343 8088ft 162kts
19-Feb-18 21:50 37.788560 -122.744898 343 8091ft 162kts
19-Feb-18 21:51 37.831364 -122.762727 343 8094ft 162kts
19-Feb-18 21:52 37.874398 -122.780875 343 7925ft 167kts
19-Feb-18 21:53 37.919624 -122.800149 343 7313ft 173kts
19-Feb-18 21:54 37.964883 -122.819966 342 6700ft 169kts
19-Feb-18 21:55 38.008291 -122.839478 343 6085ft 163kts
19-Feb-18 21:56 38.049753 -122.844760 43 5479ft 159kts
19-Feb-18 21:57 38.069163 -122.795992 59 4878ft 152kts
19-Feb-18 21:58 38.086643 -122.747648 59 4261ft 149kts
19-Feb-18 21:59 38.102781 -122.702487 58 4085ft 130kts
19-Feb-18 22:00 38.117675 -122.655778 62 3411ft 151kts
19-Feb-18 22:01 38.133287 -122.605236 62 2711ft 153kts
19-Feb-18 22:02 38.150425 -122.554950 62 2016ft 157kts
19-Feb-18 22:03 38.134222 -122.510687 144 1338ft 158kts
19-Feb-18 22:04 38.103125 -122.513367 253 1082ft 123kts
19-Feb-18 22:05 38.122845 -122.541721 326 634ft 114kts
19-Feb-18 22:06 38.144989 -122.558133 326 5ft 51kts
19-Feb-18 22:07 38.146962 -122.560220 147 4ft 8kts
19-Feb-18 22:08 38.142681 -122.557045 149 4ft 18kts
19-Feb-18 22:09 38.140792 -122.557438 236 4ft 0kts
19-Feb-18 22:10 38.140778 -122.557463 235 4ft 0kts
19-Feb-18 22:11 38.140778 -122.557463 235 4ft 0kts
19-Feb-18 22:12 38.140778 -122.557463 235 4ft 0kts
19-Feb-18 22:13 38.140778 -122.557463 235 4ft 0kts
19-Feb-18 22:14 38.140778 -122.557463 235 4ft 0kts
19-Feb-18 22:15 38.140778 -122.557463 235 4ft 0kts
19-Feb-18 22:16 38.140778 -122.557463 235 4ft 0kts
19-Feb-18 22:17 38.140778 -122.557463 235 4ft 0kts
19-Feb-18 22:18 38.140778 -122.557463 235 4ft 0kts

Navigation Log

Ident Type
Flight plan parsing failed, navigation log unavailable